Terminal Aerodrome Forecast
Issued by NWS

Home | Current Version | Previous Version | Text Only | Print | Product List | Glossary On
Versions: 1 2 3 4 5 6 7 8 9 10 11 12 13 14 15 16
000
FTUS43 KPAH 082300 AAA
TAFCGI
TAF AMD
KCGI 082301Z 0823/0918 25010KT P6SM VCTS BKN045CB
     FM090000 31003KT P6SM SCT060
     FM091500 34005KT P6SM SCT030=

USA.gov is the U.S. government's official web portal to all federal, state and local government web resources and services.